TimeCDT,TemperatureF,Dew PointF,Humidity,Sea Level PressureIn,VisibilityMPH,Wind Direction,Wind SpeedMPH,Gust SpeedMPH,PrecipitationIn,Events,Conditions,WindDirDegrees,DateUTC
12:53 AM,43.0,30.0,60,30.14,10.0,SSW,5.8,-,N/A,,Clear,200,2012-10-11 05:53:00
1:53 AM,42.1,32.0,67,30.13,10.0,South,3.5,-,N/A,,Clear,190,2012-10-11 06:53:00
2:53 AM,43.0,30.9,62,30.12,10.0,Calm,Calm,-,N/A,,Clear,0,2012-10-11 07:53:00
3:53 AM,43.0,30.9,62,30.12,10.0,SE,3.5,-,N/A,,Clear,140,2012-10-11 08:53:00
4:53 AM,42.1,33.1,70,30.11,10.0,Calm,Calm,-,N/A,,Clear,0,2012-10-11 09:53:00
5:53 AM,42.1,32.0,67,30.09,10.0,Calm,Calm,-,N/A,,Clear,0,2012-10-11 10:53:00
6:53 AM,37.9,30.9,76,30.09,10.0,SSE,4.6,-,N/A,,Clear,150,2012-10-11 11:53:00
7:53 AM,39.9,32.0,73,30.11,10.0,SE,4.6,-,N/A,,Clear,140,2012-10-11 12:53:00
8:53 AM,50.0,34.0,54,30.10,10.0,SSE,6.9,-,N/A,,Clear,160,2012-10-11 13:53:00
9:53 AM,57.0,36.0,45,30.11,10.0,SSW,3.5,-,N/A,,Clear,210,2012-10-11 14:53:00
10:53 AM,63.0,39.9,43,30.10,10.0,SW,6.9,-,N/A,,Scattered Clouds,220,2012-10-11 15:53:00
11:53 AM,68.0,43.0,40,30.09,10.0,SSW,10.4,-,N/A,,Mostly Cloudy,200,2012-10-11 16:53:00
12:53 PM,69.1,46.0,44,30.09,10.0,SSW,9.2,-,N/A,,Mostly Cloudy,210,2012-10-11 17:53:00
1:53 PM,70.0,46.9,44,30.06,10.0,Variable,4.6,-,N/A,,Partly Cloudy,0,2012-10-11 18:53:00
3:53 PM,72.0,48.0,43,30.03,10.0,ENE,3.5,-,N/A,,Clear,60,2012-10-11 20:53:00
4:53 PM,72.0,48.9,44,30.05,10.0,NE,4.6,-,N/A,,Overcast,40,2012-10-11 21:53:00
5:53 PM,69.1,50.0,51,30.06,10.0,East,3.5,-,N/A,,Overcast,80,2012-10-11 22:53:00
6:53 PM,68.0,48.9,50,30.08,10.0,ESE,4.6,-,N/A,,Overcast,110,2012-10-11 23:53:00
7:53 PM,66.9,44.1,44,30.12,10.0,NNE,13.8,25.3,N/A,,Overcast,20,2012-10-12 00:53:00
8:53 PM,62.1,35.1,37,30.17,10.0,North,13.8,-,N/A,,Overcast,360,2012-10-12 01:53:00
9:53 PM,57.9,34.0,41,30.20,10.0,NNE,20.7,25.3,N/A,,Overcast,30,2012-10-12 02:53:00
10:53 PM,55.9,32.0,40,30.24,10.0,NNE,13.8,21.9,N/A,,Overcast,30,2012-10-12 03:53:00
11:53 PM,55.0,30.9,40,30.26,10.0,NNE,16.1,23.0,N/A,,Overcast,30,2012-10-12 04:53:00